sensor_id;sensor_type;location;lat;lon;timestamp;P1;P2;P0
74432;PMS7003;62865;53.146;23.172;2022-10-31T00:04:21;16.8;13.6;9.4
74432;PMS7003;62865;53.146;23.172;2022-10-31T00:08:51;16.3;14;9
74432;PMS7003;62865;53.146;23.172;2022-10-31T00:14:35;15;14;10.5
74432;PMS7003;62865;53.146;23.172;2022-10-31T00:19:35;23;20.5;12
74432;PMS7003;62865;53.146;23.172;2022-10-31T00:24:21;26;20.3;11.3
74432;PMS7003;62865;53.146;23.172;2022-10-31T00:29:21;23;20.7;12.3
74432;PMS7003;62865;53.146;23.172;2022-10-31T00:33:57;37.5;28.5;16
74432;PMS7003;62865;53.146;23.172;2022-10-31T00:39:21;33;26;14
74432;PMS7003;62865;53.146;23.172;2022-10-31T00:44:09;32.3;23.5;13
74432;PMS7003;62865;53.146;23.172;2022-10-31T00:49:35;29;24;12.8
74432;PMS7003;62865;53.146;23.172;2022-10-31T00:54:07;21.8;19.6;12
74432;PMS7003;62865;53.146;23.172;2022-10-31T00:59:13;24;19;10.5
74432;PMS7003;62865;53.146;23.172;2022-10-31T01:03:57;25.5;23.5;14
74432;PMS7003;62865;53.146;23.172;2022-10-31T01:09:11;21.3;17;11.3
74432;PMS7003;62865;53.146;23.172;2022-10-31T01:14:01;23.5;18;12
74432;PMS7003;62865;53.146;23.172;2022-10-31T01:19:21;22;19;11
74432;PMS7003;62865;53.146;23.172;2022-10-31T01:23:49;25.7;20;12
74432;PMS7003;62865;53.146;23.172;2022-10-31T01:29:37;27.8;23.3;13.5
74432;PMS7003;62865;53.146;23.172;2022-10-31T01:34:37;23;18;11.8
74432;PMS7003;62865;53.146;23.172;2022-10-31T01:39:23;27.3;19;11.5
74432;PMS7003;62865;53.146;23.172;2022-10-31T01:45:19;27.8;20.3;11
74432;PMS7003;62865;53.146;23.172;2022-10-31T01:48:57;24.8;19.5;12
74432;PMS7003;62865;53.146;23.172;2022-10-31T01:54:39;17;17;12
74432;PMS7003;62865;53.146;23.172;2022-10-31T01:59:13;23.5;22;13
74432;PMS7003;62865;53.146;23.172;2022-10-31T02:04:39;21;18.5;12
74432;PMS7003;62865;53.146;23.172;2022-10-31T02:08:57;19;16;11
74432;PMS7003;62865;53.146;23.172;2022-10-31T02:13:49;19;16;9.3
74432;PMS7003;62865;53.146;23.172;2022-10-31T02:19:13;15.7;12.3;8.3
74432;PMS7003;62865;53.146;23.172;2022-10-31T02:24:51;15.5;12;7
74432;PMS7003;62865;53.146;23.172;2022-10-31T02:30:30;18.5;15;8.5
74432;PMS7003;62865;53.146;23.172;2022-10-31T02:34:24;15;11.3;6.7
74432;PMS7003;62865;53.146;23.172;2022-10-31T02:38:51;18;13;8
74432;PMS7003;62865;53.146;23.172;2022-10-31T02:44:39;13;11;7
74432;PMS7003;62865;53.146;23.172;2022-10-31T02:49:40;14;10;5.7
74432;PMS7003;62865;53.146;23.172;2022-10-31T02:54:23;11.8;9.3;5.8
74432;PMS7003;62865;53.146;23.172;2022-10-31T02:59:39;18;13;9
74432;PMS7003;62865;53.146;23.172;2022-10-31T03:04:04;16.5;13.5;9.5
74432;PMS7003;62865;53.146;23.172;2022-10-31T03:09:38;13.7;11;7
74432;PMS7003;62865;53.146;23.172;2022-10-31T03:14:15;15.3;12.7;8.7
74432;PMS7003;62865;53.146;23.172;2022-10-31T03:19:39;13.5;13;8.5
74432;PMS7003;62865;53.146;23.172;2022-10-31T03:23:49;18;14;8
74432;PMS7003;62865;53.146;23.172;2022-10-31T03:28:49;15;12;9
74432;PMS7003;62865;53.146;23.172;2022-10-31T03:33:49;15.4;13.8;9
74432;PMS7003;62865;53.146;23.172;2022-10-31T03:39:25;16.3;12.7;8.7
74432;PMS7003;62865;53.146;23.172;2022-10-31T03:44:13;16.5;15;11
74432;PMS7003;62865;53.146;23.172;2022-10-31T03:49:13;17.7;14.3;10
74432;PMS7003;62865;53.146;23.172;2022-10-31T03:54:03;20.5;18.5;11.5
74432;PMS7003;62865;53.146;23.172;2022-10-31T03:59:39;22.5;19;10.5
74432;PMS7003;62865;53.146;23.172;2022-10-31T04:04:39;21;18;11
74432;PMS7003;62865;53.146;23.172;2022-10-31T04:09:25;21;17;10.6
74432;PMS7003;62865;53.146;23.172;2022-10-31T04:14:23;22.6;17.8;11.4
74432;PMS7003;62865;53.146;23.172;2022-10-31T04:19:01;20.5;16.5;11
74432;PMS7003;62865;53.146;23.172;2022-10-31T04:24:27;21;16.3;11
74432;PMS7003;62865;53.146;23.172;2022-10-31T04:29:13;27;24;13
74432;PMS7003;62865;53.146;23.172;2022-10-31T04:34:39;22.2;17.8;11.2
74432;PMS7003;62865;53.146;23.172;2022-10-31T04:38:57;16.8;14.6;10
74432;PMS7003;62865;53.146;23.172;2022-10-31T04:44:01;24.2;18.6;11.2
74432;PMS7003;62865;53.146;23.172;2022-10-31T04:49:01;19.4;16.2;10.2
74432;PMS7003;62865;53.146;23.172;2022-10-31T04:54:25;18.6;16;10
74432;PMS7003;62865;53.146;23.172;2022-10-31T04:58:49;18.8;15.8;10
74432;PMS7003;62865;53.146;23.172;2022-10-31T05:04:25;16.8;15;10
74432;PMS7003;62865;53.146;23.172;2022-10-31T05:09:01;21.2;17.2;11.6
74432;PMS7003;62865;53.146;23.172;2022-10-31T05:14:39;23.2;19.4;12.6
74432;PMS7003;62865;53.146;23.172;2022-10-31T05:19:39;21;18.6;12.2
74432;PMS7003;62865;53.146;23.172;2022-10-31T05:24:25;23;20.4;12.8
74432;PMS7003;62865;53.146;23.172;2022-10-31T05:29:11;26.8;22.8;13.8
74432;PMS7003;62865;53.146;23.172;2022-10-31T05:34:15;26.8;21.8;14.5
74432;PMS7003;62865;53.146;23.172;2022-10-31T05:39:37;29.8;23.5;16.5
74432;PMS7003;62865;53.146;23.172;2022-10-31T05:44:03;36;31;21
74432;PMS7003;62865;53.146;23.172;2022-10-31T05:49:41;53.7;41.7;26
74432;PMS7003;62865;53.146;23.172;2022-10-31T05:53:51;47.7;39;24.7
74432;PMS7003;62865;53.146;23.172;2022-10-31T05:59:03;48.5;38.8;22.8
74432;PMS7003;62865;53.146;23.172;2022-10-31T06:04:15;44.3;35.7;22.3
74432;PMS7003;62865;53.146;23.172;2022-10-31T06:09:25;46.3;38.7;23.3
74432;PMS7003;62865;53.146;23.172;2022-10-31T06:14:13;41;34.7;22.7
74432;PMS7003;62865;53.146;23.172;2022-10-31T06:19:41;48;38;25
74432;PMS7003;62865;53.146;23.172;2022-10-31T06:23:51;46;37;25
74432;PMS7003;62865;53.146;23.172;2022-10-31T06:29:39;42;35.5;22.5
74432;PMS7003;62865;53.146;23.172;2022-10-31T06:34:39;46.6;36;22
74432;PMS7003;62865;53.146;23.172;2022-10-31T06:39:23;43.8;36;21.3
74432;PMS7003;62865;53.146;23.172;2022-10-31T06:44:23;47;37.3;23.7
74432;PMS7003;62865;53.146;23.172;2022-10-31T06:48:51;42.8;36;21.3
74432;PMS7003;62865;53.146;23.172;2022-10-31T06:54:41;39.7;34.7;22.3
74432;PMS7003;62865;53.146;23.172;2022-10-31T06:59:03;45;35.5;22.5
74432;PMS7003;62865;53.146;23.172;2022-10-31T07:04:41;50.6;40;26.2
74432;PMS7003;62865;53.146;23.172;2022-10-31T07:08:59;49;38.4;24.6
74432;PMS7003;62865;53.146;23.172;2022-10-31T07:14:03;49.8;39.8;25.2
74432;PMS7003;62865;53.146;23.172;2022-10-31T07:19:15;49.5;40.8;25.5
74432;PMS7003;62865;53.146;23.172;2022-10-31T07:24:27;50.5;40.5;25
74432;PMS7003;62865;53.146;23.172;2022-10-31T07:29:15;44.6;35.8;23.2
74432;PMS7003;62865;53.146;23.172;2022-10-31T07:34:27;52.4;41;25.2
74432;PMS7003;62865;53.146;23.172;2022-10-31T07:38:51;50;39;24.7
74432;PMS7003;62865;53.146;23.172;2022-10-31T07:44:39;50.3;40;24.8
74432;PMS7003;62865;53.146;23.172;2022-10-31T07:49:39;49.4;38.6;23.8
74432;PMS7003;62865;53.146;23.172;2022-10-31T07:54:25;49;39;23.4
74432;PMS7003;62865;53.146;23.172;2022-10-31T07:59:25;45.8;37;23
74432;PMS7003;62865;53.146;23.172;2022-10-31T08:04:03;52;41.8;25.8
74432;PMS7003;62865;53.146;23.172;2022-10-31T08:09:41;51.5;42.3;25.8
74432;PMS7003;62865;53.146;23.172;2022-10-31T08:14:15;53;41.6;25.2
74432;PMS7003;62865;53.146;23.172;2022-10-31T08:19:41;50.8;40.2;25.4
74432;PMS7003;62865;53.146;23.172;2022-10-31T08:23:59;46.4;37;24.2
74432;PMS7003;62865;53.146;23.172;2022-10-31T08:29:01;45.6;37.2;22
74432;PMS7003;62865;53.146;23.172;2022-10-31T08:34:25;49.8;38.4;24
74432;PMS7003;62865;53.146;23.172;2022-10-31T08:39:15;40.8;35;21.8
74432;PMS7003;62865;53.146;23.172;2022-10-31T08:44:41;31.4;28.2;17.8
74432;PMS7003;62865;53.146;23.172;2022-10-31T08:49:41;23.4;21.8;15.2
74432;PMS7003;62865;53.146;23.172;2022-10-31T08:53:51;23.4;20.6;13.6
74432;PMS7003;62865;53.146;23.172;2022-10-31T08:59:27;20.4;17;11.6
74432;PMS7003;62865;53.146;23.172;2022-10-31T09:04:41;19;18.2;11.8
74432;PMS7003;62865;53.146;23.172;2022-10-31T09:09:29;17.6;15;10.2
74432;PMS7003;62865;53.146;23.172;2022-10-31T09:14:13;13.8;12;7.6
74432;PMS7003;62865;53.146;23.172;2022-10-31T09:19:03;10.8;8.8;6
74432;PMS7003;62865;53.146;23.172;2022-10-31T09:24:15;11;9.4;6.4
74432;PMS7003;62865;53.146;23.172;2022-10-31T09:29:41;11;9.6;6.6
74432;PMS7003;62865;53.146;23.172;2022-10-31T09:34:15;11.3;9.5;6.5
74432;PMS7003;62865;53.146;23.172;2022-10-31T09:39:41;12.2;11;7.8
74432;PMS7003;62865;53.146;23.172;2022-10-31T09:44:04;12.4;11.2;8.2
74432;PMS7003;62865;53.146;23.172;2022-10-31T09:49:36;14;12.4;7.8
74432;PMS7003;62865;53.146;23.172;2022-10-31T09:54:16;13.4;11.2;8.6
74432;PMS7003;62865;53.146;23.172;2022-10-31T09:59:41;16.6;15;10.6
74432;PMS7003;62865;53.146;23.172;2022-10-31T10:04:42;17;15;10
74432;PMS7003;62865;53.146;23.172;2022-10-31T10:09:03;13.8;12.4;8.8
74432;PMS7003;62865;53.146;23.172;2022-10-31T10:14:09;16.8;14;9.4
74432;PMS7003;62865;53.146;23.172;2022-10-31T10:19:32;16;14.2;9.2
74432;PMS7003;62865;53.146;23.172;2022-10-31T10:24:33;15.4;13.2;8.6
74432;PMS7003;62865;53.146;23.172;2022-10-31T10:29:29;18.4;16;11.2
74432;PMS7003;62865;53.146;23.172;2022-10-31T10:34:06;15.8;14.6;10.2
74432;PMS7003;62865;53.146;23.172;2022-10-31T10:39:04;15.3;13.3;8.8
74432;PMS7003;62865;53.146;23.172;2022-10-31T10:44:42;15.8;13.7;8.7
74432;PMS7003;62865;53.146;23.172;2022-10-31T10:49:06;17;15;10
74432;PMS7003;62865;53.146;23.172;2022-10-31T10:54:42;17.6;15.6;10
74432;PMS7003;62865;53.146;23.172;2022-10-31T10:59:01;16.2;14.6;10
74432;PMS7003;62865;53.146;23.172;2022-10-31T11:04:24;15.2;13.2;8.8
74432;PMS7003;62865;53.146;23.172;2022-10-31T11:08:51;14.8;11.6;7.6
74432;PMS7003;62865;53.146;23.172;2022-10-31T11:14:43;13;12.2;8
74432;PMS7003;62865;53.146;23.172;2022-10-31T11:19:41;12.6;11.6;7.8
74432;PMS7003;62865;53.146;23.172;2022-10-31T11:24:14;11.8;10.6;7.2
74432;PMS7003;62865;53.146;23.172;2022-10-31T11:29:21;11.6;10.4;7.2
74432;PMS7003;62865;53.146;23.172;2022-10-31T11:34:28;11.8;10.8;7.8
74432;PMS7003;62865;53.146;23.172;2022-10-31T11:39:27;14.2;12.2;8.4
74432;PMS7003;62865;53.146;23.172;2022-10-31T11:44:14;14.4;11.6;8
74432;PMS7003;62865;53.146;23.172;2022-10-31T11:48:51;15;12.3;8.3
74432;PMS7003;62865;53.146;23.172;2022-10-31T11:54:18;10.6;10;6.8
74432;PMS7003;62865;53.146;23.172;2022-10-31T11:59:29;13.8;11.2;7.8
74432;PMS7003;62865;53.146;23.172;2022-10-31T12:04:04;12.3;9.8;6.8
74432;PMS7003;62865;53.146;23.172;2022-10-31T12:09:41;11.8;10.5;6.8
74432;PMS7003;62865;53.146;23.172;2022-10-31T12:14:06;15.4;13.2;8.2
74432;PMS7003;62865;53.146;23.172;2022-10-31T12:19:31;11.5;10.8;7.8
74432;PMS7003;62865;53.146;23.172;2022-10-31T12:24:30;11.3;10;7.3
74432;PMS7003;62865;53.146;23.172;2022-10-31T12:29:46;11.2;10;7
74432;PMS7003;62865;53.146;23.172;2022-10-31T12:34:45;11.8;8.8;6.4
74432;PMS7003;62865;53.146;23.172;2022-10-31T12:39:15;9.2;9.2;6.4
74432;PMS7003;62865;53.146;23.172;2022-10-31T12:44:33;11.3;10;6.3
74432;PMS7003;62865;53.146;23.172;2022-10-31T12:49:17;10.6;9;7
74432;PMS7003;62865;53.146;23.172;2022-10-31T12:54:33;12.2;10.4;7.8
74432;PMS7003;62865;53.146;23.172;2022-10-31T12:59:12;12.4;11.2;7.8
74432;PMS7003;62865;53.146;23.172;2022-10-31T13:04:05;13.5;11.3;7.5
74432;PMS7003;62865;53.146;23.172;2022-10-31T13:08:52;13.5;11.8;7.3
74432;PMS7003;62865;53.146;23.172;2022-10-31T13:14:41;13.2;10.6;7.4
74432;PMS7003;62865;53.146;23.172;2022-10-31T13:19:16;11.4;9.6;6.4
74432;PMS7003;62865;53.146;23.172;2022-10-31T13:24:26;9.8;8.8;6
74432;PMS7003;62865;53.146;23.172;2022-10-31T13:28:53;9.8;8.8;5.8
74432;PMS7003;62865;53.146;23.172;2022-10-31T13:34:20;10;8.8;5.8
74432;PMS7003;62865;53.146;23.172;2022-10-31T13:38:51;12.4;10.6;7.4
74432;PMS7003;62865;53.146;23.172;2022-10-31T13:44:27;10.3;8.7;7.3
74432;PMS7003;62865;53.146;23.172;2022-10-31T13:49:41;15.4;13.8;9.2
74432;PMS7003;62865;53.146;23.172;2022-10-31T13:53:57;17.8;15.4;10
74432;PMS7003;62865;53.146;23.172;2022-10-31T13:58:55;19.8;18;12.2
74432;PMS7003;62865;53.146;23.172;2022-10-31T14:04:28;15.2;13.2;9
74432;PMS7003;62865;53.146;23.172;2022-10-31T14:09:28;14.4;13.8;9.2
74432;PMS7003;62865;53.146;23.172;2022-10-31T14:14:29;15.8;13.8;9.2
74432;PMS7003;62865;53.146;23.172;2022-10-31T14:18:56;16;15;9.6
74432;PMS7003;62865;53.146;23.172;2022-10-31T14:24:15;18.8;16.5;10.5
74432;PMS7003;62865;53.146;23.172;2022-10-31T14:29:41;16.2;15.6;10.4
74432;PMS7003;62865;53.146;23.172;2022-10-31T14:33:51;17.8;16.2;10.2
74432;PMS7003;62865;53.146;23.172;2022-10-31T14:39:41;18.3;15;9.5
74432;PMS7003;62865;53.146;23.172;2022-10-31T14:44:15;25;21;12
74432;PMS7003;62865;53.146;23.172;2022-10-31T14:48:56;17.8;15.8;10.4
74432;PMS7003;62865;53.146;23.172;2022-10-31T14:54:15;18.2;14.8;9.8
74432;PMS7003;62865;53.146;23.172;2022-10-31T14:59:28;20.8;19.2;11.8
74432;PMS7003;62865;53.146;23.172;2022-10-31T15:04:39;17.2;14.2;9.4
74432;PMS7003;62865;53.146;23.172;2022-10-31T15:08:52;18.2;13.4;9.6
74432;PMS7003;62865;53.146;23.172;2022-10-31T15:14:05;18.2;15.6;9.8
74432;PMS7003;62865;53.146;23.172;2022-10-31T15:19:28;17.3;14.3;9.3
74432;PMS7003;62865;53.146;23.172;2022-10-31T15:24:30;17.5;14.5;8.8
74432;PMS7003;62865;53.146;23.172;2022-10-31T15:29:04;17.4;15;9.2
74432;PMS7003;62865;53.146;23.172;2022-10-31T15:34:03;17.6;15.2;9.6
74432;PMS7003;62865;53.146;23.172;2022-10-31T15:39:03;19.8;16.2;9.6
74432;PMS7003;62865;53.146;23.172;2022-10-31T15:44:41;16;14.6;9.4
74432;PMS7003;62865;53.146;23.172;2022-10-31T15:49:01;19.6;17.8;10.6
74432;PMS7003;62865;53.146;23.172;2022-10-31T15:54:41;21;19.4;11.2
74432;PMS7003;62865;53.146;23.172;2022-10-31T15:58:52;26.4;21;13.8
74432;PMS7003;62865;53.146;23.172;2022-10-31T16:03:57;44.8;37.4;23.4
74432;PMS7003;62865;53.146;23.172;2022-10-31T16:09:18;42.4;34.4;20.8
74432;PMS7003;62865;53.146;23.172;2022-10-31T16:14:25;40.4;32.8;19.6
74432;PMS7003;62865;53.146;23.172;2022-10-31T16:19:44;32.8;27.4;18
74432;PMS7003;62865;53.146;23.172;2022-10-31T16:24:00;42.8;34.6;21.2
74432;PMS7003;62865;53.146;23.172;2022-10-31T16:28:52;43.8;35;21.6
74432;PMS7003;62865;53.146;23.172;2022-10-31T16:34:25;51.8;40.4;24.4
74432;PMS7003;62865;53.146;23.172;2022-10-31T16:39:03;56;44;26
74432;PMS7003;62865;53.146;23.172;2022-10-31T16:43:51;54;41.7;24.3
74432;PMS7003;62865;53.146;23.172;2022-10-31T16:49:03;52.4;41.4;25.8
74432;PMS7003;62865;53.146;23.172;2022-10-31T16:54:01;63;48.4;28.8
74432;PMS7003;62865;53.146;23.172;2022-10-31T16:59:39;63;48.8;30
74432;PMS7003;62865;53.146;23.172;2022-10-31T17:04:13;65.6;51.2;31.6
74432;PMS7003;62865;53.146;23.172;2022-10-31T17:09:39;74.8;57.2;35.2
74432;PMS7003;62865;53.146;23.172;2022-10-31T17:14:01;78;61.4;36.8
74432;PMS7003;62865;53.146;23.172;2022-10-31T17:18:51;77.4;61;36.2
74432;PMS7003;62865;53.146;23.172;2022-10-31T17:24:14;77.6;59.6;36
74432;PMS7003;62865;53.146;23.172;2022-10-31T17:29:23;78.6;61.4;37
74432;PMS7003;62865;53.146;23.172;2022-10-31T17:34:25;81.4;66.6;38.4
74432;PMS7003;62865;53.146;23.172;2022-10-31T17:39:39;82.6;68.2;37.6
74432;PMS7003;62865;53.146;23.172;2022-10-31T17:44:01;81.2;64.4;37.6
74432;PMS7003;62865;53.146;23.172;2022-10-31T17:49:39;81.3;65.3;37.3
74432;PMS7003;62865;53.146;23.172;2022-10-31T17:54:27;83.4;69.2;39
74432;PMS7003;62865;53.146;23.172;2022-10-31T17:58:51;87.4;73.8;40.8
74432;PMS7003;62865;53.146;23.172;2022-10-31T18:04:25;87;77;41.8
74432;PMS7003;62865;53.146;23.172;2022-10-31T18:09:02;84.8;70.4;39.8
74432;PMS7003;62865;53.146;23.172;2022-10-31T18:14:39;82.6;68.6;38.6
74432;PMS7003;62865;53.146;23.172;2022-10-31T18:19:14;82.7;71;40
74432;PMS7003;62865;53.146;23.172;2022-10-31T18:24:25;83.6;68.4;39
74432;PMS7003;62865;53.146;23.172;2022-10-31T18:29:09;83.4;68;38.6
74432;PMS7003;62865;53.146;23.172;2022-10-31T18:34:01;86;70.4;40.4
74432;PMS7003;62865;53.146;23.172;2022-10-31T18:39:13;85.8;71;40.4
74432;PMS7003;62865;53.146;23.172;2022-10-31T18:44:25;88.8;74.6;41.6
74432;PMS7003;62865;53.146;23.172;2022-10-31T18:49:25;85.4;70;38.8
74432;PMS7003;62865;53.146;23.172;2022-10-31T18:54:37;89.3;78.3;43.3
74432;PMS7003;62865;53.146;23.172;2022-10-31T18:59:15;89.6;77.4;42.8
74432;PMS7003;62865;53.146;23.172;2022-10-31T19:04:39;93.6;79.4;45.6
74432;PMS7003;62865;53.146;23.172;2022-10-31T19:09:25;86.6;74;42
74432;PMS7003;62865;53.146;23.172;2022-10-31T19:13:51;90.3;77.3;42.5
74432;PMS7003;62865;53.146;23.172;2022-10-31T19:19:25;83;68.3;31
74432;PMS7003;62865;53.146;23.172;2022-10-31T19:24:01;90;77;44.6
74432;PMS7003;62865;53.146;23.172;2022-10-31T19:29:39;84.5;69.3;40.3
74432;PMS7003;62865;53.146;23.172;2022-10-31T19:33:51;77.7;60.7;36.3
74432;PMS7003;62865;53.146;23.172;2022-10-31T19:39:37;77.2;58.4;36.8
74432;PMS7003;62865;53.146;23.172;2022-10-31T19:44:11;74.5;59.5;35
74432;PMS7003;62865;53.146;23.172;2022-10-31T19:48:51;76.2;58.2;34.8
74432;PMS7003;62865;53.146;23.172;2022-10-31T19:53:52;72;54.6;33.6
74432;PMS7003;62865;53.146;23.172;2022-10-31T19:59:25;72;54.6;33.6
74432;PMS7003;62865;53.146;23.172;2022-10-31T20:04:23;74.5;55.5;33.5
74432;PMS7003;62865;53.146;23.172;2022-10-31T20:19:39;78.5;60.5;35
74432;PMS7003;62865;53.146;23.172;2022-10-31T20:24:29;73;56;34.3
74432;PMS7003;62865;53.146;23.172;2022-10-31T20:28:59;73;56;34.3
74432;PMS7003;62865;53.146;23.172;2022-10-31T20:34:39;81;59;35
74432;PMS7003;62865;53.146;23.172;2022-10-31T20:44:39;73;55;33
74432;PMS7003;62865;53.146;23.172;2022-10-31T20:48:52;70.7;53.3;33.3
74432;PMS7003;62865;53.146;23.172;2022-10-31T20:54:39;69;53;33
74432;PMS7003;62865;53.146;23.172;2022-10-31T20:59:11;67;51.5;32
74432;PMS7003;62865;53.146;23.172;2022-10-31T21:03:51;67;51.5;32
74432;PMS7003;62865;53.146;23.172;2022-10-31T21:09:01;62;51;31
74432;PMS7003;62865;53.146;23.172;2022-10-31T21:14:25;65.2;49.8;31.4
74432;PMS7003;62865;53.146;23.172;2022-10-31T21:19:25;79.2;61.6;36.4
74432;PMS7003;62865;53.146;23.172;2022-10-31T21:24:39;69.8;52.5;32
74432;PMS7003;62865;53.146;23.172;2022-10-31T21:29:27;62;49;30
74432;PMS7003;62865;53.146;23.172;2022-10-31T21:34:39;65;50;30.5
74432;PMS7003;62865;53.146;23.172;2022-10-31T21:39:27;56.5;45;26.5
74432;PMS7003;62865;53.146;23.172;2022-10-31T21:43:51;56;43.7;27
74432;PMS7003;62865;53.146;23.172;2022-10-31T21:49:25;53.7;42.7;26
74432;PMS7003;62865;53.146;23.172;2022-10-31T21:54:01;52.3;40.7;25.3
74432;PMS7003;62865;53.146;23.172;2022-10-31T21:59:35;55;45;27
74432;PMS7003;62865;53.146;23.172;2022-10-31T22:04:21;54.7;42.3;26
74432;PMS7003;62865;53.146;23.172;2022-10-31T22:09:33;53.3;42;25.3
74432;PMS7003;62865;53.146;23.172;2022-10-31T22:14:09;48.5;37.8;23
74432;PMS7003;62865;53.146;23.172;2022-10-31T22:18:51;48.3;40.3;24.7
74432;PMS7003;62865;53.146;23.172;2022-10-31T22:23:58;49.5;38;23
74432;PMS7003;62865;53.146;23.172;2022-10-31T22:29:19;48.5;39.5;25.5
74432;PMS7003;62865;53.146;23.172;2022-10-31T22:34:27;53;41;25
74432;PMS7003;62865;53.146;23.172;2022-10-31T22:39:33;48.5;39;24.5
74432;PMS7003;62865;53.146;23.172;2022-10-31T22:44:23;49.3;39;24.3
74432;PMS7003;62865;53.146;23.172;2022-10-31T22:49:35;47;40;24
74432;PMS7003;62865;53.146;23.172;2022-10-31T22:54:23;51;39.5;25.5
74432;PMS7003;62865;53.146;23.172;2022-10-31T23:04:21;49;38;25
74432;PMS7003;62865;53.146;23.172;2022-10-31T23:08:51;47;40;24
74432;PMS7003;62865;53.146;23.172;2022-10-31T23:14:35;57;44;26
74432;PMS7003;62865;53.146;23.172;2022-10-31T23:18:51;47;39;24
74432;PMS7003;62865;53.146;23.172;2022-10-31T23:24:34;55.7;42;24.7
74432;PMS7003;62865;53.146;23.172;2022-10-31T23:29:07;55.7;42;24.7
74432;PMS7003;62865;53.146;23.172;2022-10-31T23:34:23;52.4;40.2;24.8
74432;PMS7003;62865;53.146;23.172;2022-10-31T23:39:07;50;40.2;24.8
74432;PMS7003;62865;53.146;23.172;2022-10-31T23:44:19;51;40;24
74432;PMS7003;62865;53.146;23.172;2022-10-31T23:49:19;50.5;40;25.5
74432;PMS7003;62865;53.146;23.172;2022-10-31T23:54:31;56;42;25
74432;PMS7003;62865;53.146;23.172;2022-10-31T23:58:51;49;41;25
